Time;durP1;ratioP1;P1;durP2;ratioP2;P2;SDS_P1;SDS_P2;PMS_P1;PMS_P2;Temp;Humidity;BMP_temperature;BMP_pressure;BME280_temperature;BME280_humidity;BME280_pressure;Samples;Min_cycle;Max_cycle;Signal;HPM_P1;HPM_P2
2023/06/21 00:00:22;;;;;;;11.60;4.70;;;21.40;28.20;;;;;;5023757;28;20475;-68
2023/06/21 00:02:51;;;;;;;11.70;4.00;;;21.30;28.70;;;;;;5018244;28;20513;-68
2023/06/21 00:05:18;;;;;;;16.27;5.53;;;21.30;29.10;;;;;;5021036;28;20972;-68
2023/06/21 00:07:47;;;;;;;15.90;5.80;;;21.30;29.10;;;;;;5024647;28;20470;-68
2023/06/21 00:10:14;;;;;;;16.10;5.73;;;21.20;29.50;;;;;;5025506;28;20459;-68
2023/06/21 00:12:41;;;;;;;19.50;6.07;;;21.30;29.00;;;;;;5020845;28;20479;-68
2023/06/21 00:15:09;;;;;;;14.23;5.60;;;21.30;29.30;;;;;;5024836;28;20487;-68
2023/06/21 00:17:36;;;;;;;19.93;6.60;;;21.30;29.20;;;;;;5019871;28;20478;-68
2023/06/21 00:20:09;;;;;;;14.77;5.70;;;21.30;29.20;;;;;;5025585;28;20991;-68
2023/06/21 00:22:35;;;;;;;11.63;5.60;;;21.30;29.20;;;;;;5019083;28;20899;-68
2023/06/21 00:25:02;;;;;;;14.77;5.77;;;21.30;28.90;;;;;;5026270;28;20460;-67
2023/06/21 00:27:29;;;;;;;14.00;5.57;;;21.30;29.00;;;;;;5025486;28;20930;-68
2023/06/21 00:29:56;;;;;;;14.83;5.10;;;21.30;29.10;;;;;;5022141;28;20482;-68
2023/06/21 00:32:22;;;;;;;22.53;6.80;;;21.30;29.10;;;;;;5024958;28;21005;-67
2023/06/21 00:34:49;;;;;;;16.77;6.40;;;21.30;29.30;;;;;;5023796;28;20490;-68
2023/06/21 00:37:17;;;;;;;11.47;4.73;;;21.30;29.10;;;;;;5020627;28;20476;-68
2023/06/21 00:39:44;;;;;;;13.80;4.53;;;21.30;29.00;;;;;;5022814;28;20462;-68
2023/06/21 00:42:11;;;;;;;23.60;5.57;;;21.30;28.70;;;;;;5021456;28;20492;-68
2023/06/21 00:44:38;;;;;;;13.83;4.50;;;21.30;28.70;;;;;;5026576;28;20500;-68
2023/06/21 00:47:05;;;;;;;15.93;4.63;;;21.30;28.50;;;;;;5023897;28;20474;-68
2023/06/21 00:49:33;;;;;;;15.60;5.40;;;21.30;28.30;;;;;;5018115;28;20463;-68
2023/06/21 00:52:00;;;;;;;21.57;5.37;;;21.30;28.20;;;;;;5024718;28;20529;-68
2023/06/21 00:54:32;;;;;;;14.73;4.97;;;21.30;27.90;;;;;;5021286;28;20486;-68
2023/06/21 00:56:59;;;;;;;14.73;4.50;;;21.30;27.90;;;;;;5020442;28;20471;-68
2023/06/21 00:59:27;;;;;;;15.70;5.33;;;21.30;27.80;;;;;;5025033;28;21251;-68
2023/06/21 01:01:55;;;;;;;13.10;4.80;;;21.30;28.20;;;;;;5022424;28;20487;-68
2023/06/21 01:04:22;;;;;;;21.70;5.53;;;21.20;28.80;;;;;;5025114;28;20947;-68
2023/06/21 01:06:58;;;;;;;13.60;4.67;;;21.20;29.40;;;;;;5017022;28;20475;-68
2023/06/21 01:09:37;;;;;;;13.43;5.70;;;21.10;29.60;;;;;;5026726;28;20470;-68
2023/06/21 01:12:12;;;;;;;16.73;6.57;;;21.10;29.80;;;;;;5022473;28;21256;-67
2023/06/21 01:14:48;;;;;;;12.03;5.00;;;21.10;29.60;;;;;;5021888;28;20485;-68
2023/06/21 01:17:17;;;;;;;13.73;5.60;;;21.00;30.00;;;;;;5022594;28;20489;-68
2023/06/21 01:19:50;;;;;;;13.70;5.23;;;21.00;29.90;;;;;;5020377;28;20825;-68
2023/06/21 01:22:28;;;;;;;15.33;5.10;;;20.90;30.30;;;;;;5015143;28;20844;-67
2023/06/21 01:25:13;;;;;;;16.67;6.10;;;20.90;30.70;;;;;;5022212;28;20489;-67
2023/06/21 01:27:48;;;;;;;16.60;5.40;;;20.80;30.70;;;;;;5018045;28;20467;-68
2023/06/21 01:30:18;;;;;;;15.90;6.20;;;20.70;30.70;;;;;;5021670;28;20889;-68
2023/06/21 01:32:45;;;;;;;15.20;4.77;;;20.70;31.70;;;;;;5023913;28;20493;-68
2023/06/21 01:35:13;;;;;;;14.23;5.00;;;20.60;32.10;;;;;;5024586;28;20486;-68
2023/06/21 01:37:43;;;;;;;14.70;4.80;;;20.50;32.30;;;;;;5019407;28;20475;-68
2023/06/21 01:40:11;;;;;;;16.37;5.00;;;20.50;32.40;;;;;;5018678;28;20508;-68
2023/06/21 01:42:37;;;;;;;16.40;5.57;;;20.40;32.30;;;;;;5022051;28;20532;-66
2023/06/21 01:45:06;;;;;;;14.40;5.40;;;20.40;32.40;;;;;;5024453;28;20471;-68
2023/06/21 01:47:34;;;;;;;16.90;6.17;;;20.40;32.80;;;;;;5023736;28;20459;-68
2023/06/21 01:50:02;;;;;;;16.43;5.63;;;20.40;32.90;;;;;;5021835;28;21041;-68
2023/06/21 01:52:29;;;;;;;15.37;6.63;;;20.40;32.70;;;;;;5022194;28;20493;-68
2023/06/21 01:54:56;;;;;;;18.77;7.20;;;20.40;32.50;;;;;;5023008;28;20556;-68
2023/06/21 01:57:25;;;;;;;18.13;5.50;;;20.30;33.00;;;;;;5020426;28;20463;-68
2023/06/21 01:59:52;;;;;;;14.50;6.40;;;20.30;33.20;;;;;;5020372;28;20468;-68
2023/06/21 02:02:21;;;;;;;17.00;6.57;;;20.20;33.30;;;;;;5021989;28;21223;-68
2023/06/21 02:04:51;;;;;;;18.90;7.17;;;20.20;33.50;;;;;;5022257;28;20470;-68
2023/06/21 02:07:18;;;;;;;15.43;6.03;;;20.10;34.10;;;;;;5023079;28;20964;-68
2023/06/21 02:09:45;;;;;;;19.90;5.87;;;20.10;34.50;;;;;;5021514;28;20474;-68
2023/06/21 02:12:13;;;;;;;18.37;7.43;;;20.10;34.90;;;;;;5018955;28;20502;-68
2023/06/21 02:14:39;;;;;;;16.33;6.23;;;20.00;35.10;;;;;;5020209;28;21008;-68
2023/06/21 02:17:06;;;;;;;13.73;5.70;;;20.00;35.10;;;;;;5020930;28;20537;-69
2023/06/21 02:19:33;;;;;;;20.93;7.20;;;20.00;35.50;;;;;;5019280;28;20471;-68
2023/06/21 02:22:02;;;;;;;14.07;5.23;;;19.90;35.60;;;;;;5020064;28;20490;-68
2023/06/21 02:24:29;;;;;;;16.03;7.10;;;19.90;35.90;;;;;;5025852;28;20463;-67
2023/06/21 02:26:56;;;;;;;17.60;5.40;;;19.90;36.10;;;;;;5022646;28;20589;-68
2023/06/21 02:29:23;;;;;;;16.00;6.00;;;19.80;36.40;;;;;;5018949;28;20837;-68
2023/06/21 02:31:49;;;;;;;16.03;5.23;;;19.80;36.60;;;;;;5025396;28;20494;-68
2023/06/21 02:34:16;;;;;;;17.17;5.70;;;19.70;36.70;;;;;;5027064;28;20485;-68
2023/06/21 02:36:43;;;;;;;15.27;6.30;;;19.70;36.60;;;;;;5025779;28;20462;-68
2023/06/21 02:39:11;;;;;;;17.20;6.70;;;19.70;36.60;;;;;;5024116;28;20478;-68
2023/06/21 02:41:38;;;;;;;15.13;6.37;;;19.60;36.70;;;;;;5024164;28;20471;-68
2023/06/21 02:44:05;;;;;;;16.37;6.37;;;19.60;36.60;;;;;;5025601;28;20820;-68
2023/06/21 02:46:31;;;;;;;18.93;6.90;;;19.60;36.40;;;;;;5026487;28;20852;-67
2023/06/21 02:48:58;;;;;;;14.13;5.90;;;19.70;36.00;;;;;;5026683;28;20478;-68
2023/06/21 02:51:25;;;;;;;18.50;6.47;;;19.80;35.70;;;;;;5026950;28;21215;-68
2023/06/21 02:53:52;;;;;;;15.33;6.80;;;19.80;35.50;;;;;;5021855;28;20506;-68
2023/06/21 02:56:20;;;;;;;18.77;7.47;;;19.80;35.90;;;;;;5027789;28;20482;-68
2023/06/21 02:58:47;;;;;;;13.40;7.13;;;19.80;35.90;;;;;;5020706;28;20467;-68
2023/06/21 03:01:15;;;;;;;21.37;6.70;;;19.80;36.20;;;;;;5024847;28;20475;-69
2023/06/21 03:03:44;;;;;;;13.00;6.57;;;19.80;36.10;;;;;;5025124;28;20543;-68
2023/06/21 03:06:11;;;;;;;13.90;6.50;;;19.70;36.20;;;;;;5024841;28;20470;-68
2023/06/21 03:08:38;;;;;;;18.77;7.57;;;19.70;36.30;;;;;;5025502;28;20459;-68
2023/06/21 03:11:08;;;;;;;16.30;7.80;;;19.70;36.30;;;;;;5026186;28;20487;-68
2023/06/21 03:13:36;;;;;;;14.50;7.57;;;19.70;35.80;;;;;;5026862;28;20487;-68
2023/06/21 03:16:03;;;;;;;14.13;6.97;;;19.80;35.80;;;;;;5023093;28;21072;-68
2023/06/21 03:18:30;;;;;;;16.63;8.00;;;19.70;36.10;;;;;;5028005;28;20467;-67
2023/06/21 03:21:01;;;;;;;16.97;8.40;;;19.70;36.40;;;;;;5019851;28;20486;-68
2023/06/21 03:23:27;;;;;;;22.97;8.67;;;19.60;36.70;;;;;;5026116;28;20491;-68
2023/06/21 03:25:54;;;;;;;28.03;10.07;;;19.60;37.60;;;;;;5021442;28;20456;-67
2023/06/21 03:28:21;;;;;;;19.37;8.80;;;19.60;37.40;;;;;;5022524;28;20991;-68
2023/06/21 03:30:49;;;;;;;20.13;8.90;;;19.60;38.00;;;;;;5020532;28;20471;-68
2023/06/21 03:33:16;;;;;;;22.73;9.17;;;19.60;38.30;;;;;;5023907;28;20499;-68
2023/06/21 03:35:42;;;;;;;15.47;8.43;;;19.60;37.70;;;;;;5026883;28;20497;-68
2023/06/21 03:38:09;;;;;;;20.97;8.47;;;19.60;37.60;;;;;;5023774;28;20466;-68
2023/06/21 03:40:36;;;;;;;20.17;8.27;;;19.60;37.60;;;;;;5021224;28;20470;-68
2023/06/21 03:43:03;;;;;;;17.53;8.27;;;19.60;37.50;;;;;;5018122;28;20475;-68
2023/06/21 03:45:29;;;;;;;24.10;8.37;;;19.70;37.40;;;;;;5025646;28;20460;-68
2023/06/21 03:47:59;;;;;;;20.30;9.20;;;19.80;37.50;;;;;;5025409;28;20963;-68
2023/06/21 03:50:26;;;;;;;24.80;9.23;;;19.80;37.80;;;;;;5025571;28;20471;-68
2023/06/21 03:52:52;;;;;;;18.97;8.70;;;19.80;37.70;;;;;;5020656;28;20529;-68
2023/06/21 03:55:19;;;;;;;23.03;8.90;;;19.90;37.70;;;;;;5021146;28;20483;-67
2023/06/21 03:57:46;;;;;;;21.00;9.70;;;19.90;37.70;;;;;;5026031;28;20478;-68
2023/06/21 04:00:13;;;;;;;17.77;8.37;;;20.00;37.60;;;;;;5018670;28;20485;-68
2023/06/21 04:02:40;;;;;;;15.23;8.23;;;20.10;37.70;;;;;;5018591;28;20463;-66
2023/06/21 04:05:09;;;;;;;19.70;8.43;;;20.10;37.40;;;;;;5026198;28;20463;-66
2023/06/21 04:07:36;;;;;;;21.00;9.80;;;20.20;37.20;;;;;;5025967;28;20489;-66
2023/06/21 04:10:03;;;;;;;17.87;7.90;;;20.30;37.30;;;;;;5019863;28;20463;-67
2023/06/21 04:12:31;;;;;;;22.57;7.47;;;20.30;37.70;;;;;;5020159;28;20502;-66
2023/06/21 04:15:00;;;;;;;17.90;8.27;;;20.40;37.70;;;;;;5020345;28;20479;-67
2023/06/21 04:17:27;;;;;;;16.60;9.07;;;20.50;37.40;;;;;;5025448;28;20560;-66
2023/06/21 04:19:54;;;;;;;29.90;9.50;;;20.60;37.30;;;;;;5023437;28;20462;-69
2023/06/21 04:22:23;;;;;;;21.60;10.40;;;20.60;37.50;;;;;;5023102;28;20483;-68
2023/06/21 04:24:50;;;;;;;26.30;10.53;;;20.70;38.10;;;;;;5022219;28;20487;-67
2023/06/21 04:27:17;;;;;;;21.30;11.03;;;20.80;37.90;;;;;;5018829;28;20471;-67
2023/06/21 04:29:46;;;;;;;20.93;12.50;;;20.80;37.70;;;;;;5018187;28;20463;-67
2023/06/21 04:32:13;;;;;;;23.43;12.17;;;20.80;37.50;;;;;;5021814;28;20579;-67
2023/06/21 04:34:43;;;;;;;20.70;11.90;;;20.90;37.20;;;;;;5027044;28;20471;-67
2023/06/21 04:37:10;;;;;;;20.10;12.70;;;20.90;37.00;;;;;;5016444;28;20490;-67
2023/06/21 04:39:38;;;;;;;20.37;12.87;;;20.90;37.30;;;;;;5023066;28;20504;-67
2023/06/21 04:42:05;;;;;;;24.10;12.90;;;20.90;37.10;;;;;;5018745;28;20486;-68
2023/06/21 04:44:32;;;;;;;26.87;13.63;;;20.90;37.30;;;;;;5021276;28;20502;-68
2023/06/21 04:47:00;;;;;;;28.40;13.30;;;20.90;37.60;;;;;;5026754;28;20466;-67
2023/06/21 04:49:27;;;;;;;17.93;11.33;;;20.90;37.70;;;;;;5020419;28;20459;-68
2023/06/21 04:51:58;;;;;;;22.83;11.33;;;20.90;37.90;;;;;;5043368;22;20503;-66
2023/06/21 04:54:25;;;;;;;20.17;11.47;;;20.90;37.80;;;;;;5020369;28;20521;-66
2023/06/21 04:56:53;;;;;;;21.27;12.53;;;20.90;37.90;;;;;;5023627;28;20485;-66
2023/06/21 04:59:19;;;;;;;21.70;10.13;;;20.90;38.10;;;;;;5024274;28;20467;-67
2023/06/21 05:01:46;;;;;;;19.87;10.20;;;20.90;38.30;;;;;;5023425;28;20494;-66
2023/06/21 05:04:13;;;;;;;20.20;11.00;;;20.90;38.30;;;;;;5022028;28;20463;-66
2023/06/21 05:06:41;;;;;;;24.50;12.33;;;20.80;38.80;;;;;;5018058;28;20456;-66
2023/06/21 05:09:09;;;;;;;19.17;10.43;;;20.80;39.00;;;;;;5022487;28;20473;-66
2023/06/21 05:11:36;;;;;;;17.33;10.53;;;20.80;39.00;;;;;;5024246;28;20471;-66
2023/06/21 05:14:05;;;;;;;23.80;12.13;;;20.90;39.00;;;;;;5021110;28;20467;-66
2023/06/21 05:16:31;;;;;;;21.10;10.70;;;20.90;39.50;;;;;;5017135;28;20487;-66
2023/06/21 05:18:58;;;;;;;18.70;12.17;;;20.90;39.60;;;;;;5019636;28;20963;-66
2023/06/21 05:21:25;;;;;;;28.90;13.20;;;20.90;39.50;;;;;;5022277;28;20471;-67
2023/06/21 05:23:51;;;;;;;20.73;10.87;;;21.00;39.10;;;;;;5022111;28;20471;-66
2023/06/21 05:26:18;;;;;;;16.50;12.20;;;21.00;38.70;;;;;;5021816;28;20869;-67
2023/06/21 05:28:45;;;;;;;27.13;11.50;;;21.10;38.90;;;;;;5025551;28;20469;-66
2023/06/21 05:31:13;;;;;;;18.07;11.80;;;21.10;39.30;;;;;;5021771;28;20490;-66
2023/06/21 05:33:39;;;;;;;20.37;12.47;;;21.10;38.80;;;;;;5020975;28;20998;-67
2023/06/21 05:36:07;;;;;;;19.93;12.53;;;21.20;39.00;;;;;;5019636;28;20482;-67
2023/06/21 05:38:33;;;;;;;22.87;13.63;;;21.30;39.20;;;;;;5020454;28;20462;-66
2023/06/21 05:41:00;;;;;;;21.03;14.07;;;21.40;38.80;;;;;;5018870;28;20518;-66
2023/06/21 05:43:27;;;;;;;20.53;13.50;;;21.60;38.00;;;;;;5018838;28;20484;-66
2023/06/21 05:45:53;;;;;;;17.00;13.53;;;21.80;37.50;;;;;;5025908;28;20865;-66
2023/06/21 05:48:21;;;;;;;21.07;13.03;;;22.30;37.30;;;;;;5022507;28;20463;-66
2023/06/21 05:50:49;;;;;;;18.33;12.13;;;23.70;35.20;;;;;;5021859;28;20468;-67
2023/06/21 05:53:15;;;;;;;18.80;11.93;;;25.90;29.70;;;;;;5021673;28;20557;-67
2023/06/21 05:55:42;;;;;;;18.90;11.60;;;28.10;22.80;;;;;;5019716;28;20480;-67
2023/06/21 05:58:08;;;;;;;20.00;11.37;;;29.80;16.60;;;;;;5020200;28;20459;-67
2023/06/21 06:00:35;;;;;;;13.60;10.17;;;31.30;13.60;;;;;;5018867;28;20478;-67
2023/06/21 06:03:02;;;;;;;16.30;11.77;;;32.50;10.70;;;;;;5024108;28;20854;-67
2023/06/21 06:05:30;;;;;;;14.27;11.27;;;33.60;7.90;;;;;;5026375;28;20459;-67
2023/06/21 06:07:57;;;;;;;15.73;9.13;;;34.80;5.90;;;;;;5016982;28;20463;-67
2023/06/21 06:10:23;;;;;;;15.80;10.63;;;35.90;3.50;;;;;;5025883;28;20461;-67
2023/06/21 06:12:50;;;;;;;14.50;8.87;;;35.90;2.50;;;;;;5023357;28;20930;-67
2023/06/21 06:15:18;;;;;;;13.17;10.70;;;35.40;2.90;;;;;;5023071;28;20466;-67
2023/06/21 06:17:46;;;;;;;13.53;10.90;;;35.90;2.40;;;;;;5026347;28;20598;-67
2023/06/21 06:20:13;;;;;;;14.63;10.40;;;37.00;1.20;;;;;;5025402;28;20474;-67
2023/06/21 06:22:42;;;;;;;17.43;10.20;;;37.60;1.00;;;;;;5023199;28;20477;-67
2023/06/21 06:25:10;;;;;;;14.73;11.10;;;37.40;1.00;;;;;;5024841;28;20473;-67
2023/06/21 06:27:38;;;;;;;12.23;10.10;;;36.70;1.00;;;;;;5024796;28;20464;-67
2023/06/21 06:30:06;;;;;;;14.63;9.87;;;37.20;1.00;;;;;;5028385;28;20462;-67
2023/06/21 06:32:33;;;;;;;15.23;10.50;;;38.20;1.00;;;;;;5017046;28;20569;-67
2023/06/21 06:34:59;;;;;;;15.77;10.37;;;39.40;1.00;;;;;;5027662;28;20470;-67
2023/06/21 06:37:26;;;;;;;13.40;10.30;;;40.10;1.00;;;;;;5026124;28;20498;-67
2023/06/21 06:39:55;;;;;;;18.90;10.63;;;41.00;1.00;;;;;;5022392;28;20459;-68
2023/06/21 06:42:22;;;;;;;12.57;10.17;;;42.00;1.00;;;;;;5025569;28;20481;-68
2023/06/21 06:44:50;;;;;;;13.70;9.50;;;42.90;1.00;;;;;;5024490;28;20464;-68
2023/06/21 06:47:17;;;;;;;15.53;10.77;;;43.40;1.00;;;;;;5022659;28;20481;-68
2023/06/21 06:49:44;;;;;;;13.07;9.50;;;43.70;1.00;;;;;;5025036;28;20473;-67
2023/06/21 06:52:12;;;;;;;11.63;10.00;;;43.70;1.00;;;;;;5024054;28;20519;-68
2023/06/21 06:54:38;;;;;;;13.40;9.30;;;43.60;1.00;;;;;;5029264;28;20996;-67
2023/06/21 06:57:07;;;;;;;13.30;10.00;;;43.60;1.00;;;;;;5024860;28;20476;-67
2023/06/21 06:59:33;;;;;;;12.30;10.00;;;42.80;1.00;;;;;;5029606;28;20470;-68
2023/06/21 07:02:00;;;;;;;13.47;10.63;;;42.30;1.00;;;;;;5027260;28;21022;-67
2023/06/21 07:04:28;;;;;;;17.97;11.70;;;42.60;1.00;;;;;;5024508;28;20991;-67
2023/06/21 07:06:57;;;;;;;15.00;11.00;;;43.30;1.00;;;;;;5026338;28;20459;-67
2023/06/21 07:09:25;;;;;;;16.80;10.67;;;43.90;1.00;;;;;;5023337;28;20467;-67
2023/06/21 07:11:51;;;;;;;10.93;9.20;;;44.00;1.00;;;;;;5023362;28;20537;-67
2023/06/21 07:14:20;;;;;;;11.53;10.30;;;44.20;1.00;;;;;;5027373;28;20475;-67
2023/06/21 07:16:50;;;;;;;13.90;10.47;;;44.40;1.00;;;;;;5026143;28;20474;-68
2023/06/21 07:19:17;;;;;;;11.83;10.50;;;44.40;1.00;;;;;;5022846;28;20469;-67
2023/06/21 07:21:44;;;;;;;12.17;10.37;;;44.40;1.00;;;;;;5025915;28;20858;-67
2023/06/21 07:24:11;;;;;;;11.23;9.77;;;44.70;1.00;;;;;;5023134;28;20459;-68
2023/06/21 07:26:38;;;;;;;12.43;10.63;;;44.80;1.00;;;;;;5025822;28;20467;-67
2023/06/21 07:29:05;;;;;;;16.27;10.10;;;45.00;1.00;;;;;;5016468;28;20474;-68
2023/06/21 07:31:33;;;;;;;11.77;10.43;;;45.30;1.00;;;;;;5024020;28;20483;-68
2023/06/21 07:34:01;;;;;;;13.70;10.10;;;45.60;1.00;;;;;;5024656;28;20467;-68
2023/06/21 07:36:28;;;;;;;11.80;9.40;;;45.80;1.00;;;;;;5024239;28;20514;-67
2023/06/21 07:38:56;;;;;;;12.50;9.90;;;45.20;1.00;;;;;;5018040;28;20495;-67
2023/06/21 07:41:22;;;;;;;11.27;9.30;;;44.80;1.00;;;;;;5025768;28;20475;-68
2023/06/21 07:43:49;;;;;;;13.23;9.60;;;45.40;1.00;;;;;;5026455;28;20542;-68
2023/06/21 07:46:16;;;;;;;11.80;9.10;;;46.20;1.00;;;;;;5023078;28;20470;-67
2023/06/21 07:48:45;;;;;;;10.90;9.27;;;46.90;1.00;;;;;;5024791;28;20467;-67
2023/06/21 07:51:11;;;;;;;11.70;9.20;;;47.20;1.00;;;;;;5026078;28;20474;-67
2023/06/21 07:53:38;;;;;;;10.63;9.50;;;47.90;1.00;;;;;;5023597;28;20876;-68
2023/06/21 07:56:05;;;;;;;12.87;8.70;;;48.20;1.00;;;;;;5021706;28;20470;-67
2023/06/21 07:58:32;;;;;;;10.30;9.20;;;47.90;1.00;;;;;;5026003;28;20471;-67
2023/06/21 08:00:58;;;;;;;12.23;9.07;;;48.80;1.00;;;;;;5022720;28;21011;-67
2023/06/21 08:03:25;;;;;;;9.47;7.97;;;49.10;1.00;;;;;;5022703;28;20498;-67
2023/06/21 08:05:53;;;;;;;12.20;10.00;;;49.40;1.00;;;;;;5018625;28;20470;-67
2023/06/21 08:08:20;;;;;;;11.97;8.00;;;50.00;1.00;;;;;;5018791;28;20474;-68
2023/06/21 08:10:46;;;;;;;9.40;7.33;;;50.80;1.00;;;;;;5026355;28;20937;-67
2023/06/21 08:13:17;;;;;;;7.97;6.50;;;50.90;1.00;;;;;;5021658;28;20565;-68
2023/06/21 08:15:43;;;;;;;9.00;7.67;;;49.80;1.00;;;;;;5022101;28;20474;-66
2023/06/21 08:18:10;;;;;;;9.87;7.60;;;49.10;1.00;;;;;;5018009;28;20513;-68
2023/06/21 08:20:39;;;;;;;11.53;7.97;;;49.10;1.00;;;;;;5018819;28;20462;-67
2023/06/21 08:23:07;;;;;;;10.13;7.83;;;48.60;1.00;;;;;;5023487;28;21006;-66
2023/06/21 08:25:34;;;;;;;9.93;8.93;;;47.80;1.00;;;;;;5020497;28;20459;-67
2023/06/21 08:28:00;;;;;;;11.57;8.50;;;47.60;1.00;;;;;;5018797;28;20521;-67
2023/06/21 08:30:27;;;;;;;10.23;7.70;;;47.60;1.00;;;;;;5020952;28;20485;-67
2023/06/21 08:32:54;;;;;;;12.07;8.70;;;47.80;1.00;;;;;;5021573;28;20529;-68
2023/06/21 08:35:21;;;;;;;8.03;5.33;;;48.50;1.00;;;;;;5022957;28;20472;-67
2023/06/21 08:37:55;;;;;;;8.00;6.07;;;48.50;1.00;;;;;;5023224;28;20862;-71
2023/06/21 08:40:26;;;;;;;10.97;6.80;;;47.70;1.00;;;;;;5020585;28;20489;-65
2023/06/21 08:42:53;;;;;;;9.50;7.47;;;46.20;1.00;;;;;;5024194;28;21062;-65
2023/06/21 08:45:20;;;;;;;12.27;8.37;;;46.10;1.00;;;;;;5020243;28;20467;-66
2023/06/21 08:47:47;;;;;;;9.27;5.83;;;46.30;1.00;;;;;;5023251;28;20462;-69
2023/06/21 08:50:16;;;;;;;11.93;7.60;;;45.70;1.00;;;;;;5024291;28;20491;-69
2023/06/21 08:52:45;;;;;;;8.23;6.97;;;44.60;1.00;;;;;;5021868;28;20565;-68
2023/06/21 08:55:14;;;;;;;7.00;6.07;;;43.20;1.00;;;;;;5025087;28;20462;-70
2023/06/21 08:57:46;;;;;;;9.77;6.63;;;41.70;1.00;;;;;;5025370;28;20490;-68
2023/06/21 09:00:17;;;;;;;10.10;6.33;;;40.50;1.00;;;;;;5018799;28;20470;-68
2023/06/21 09:02:52;;;;;;;9.93;6.73;;;39.20;1.00;;;;;;5025004;28;20495;-69
2023/06/21 09:05:29;;;;;;;9.30;6.83;;;37.90;1.00;;;;;;5024718;28;20482;-68
2023/06/21 09:08:00;;;;;;;9.13;6.63;;;36.70;1.00;;;;;;5021878;28;21101;-68
2023/06/21 09:10:28;;;;;;;10.30;6.53;;;35.70;1.00;;;;;;5017714;28;20838;-66
2023/06/21 09:13:00;;;;;;;21.17;5.57;;;34.70;1.00;;;;;;5027498;28;20490;-66
2023/06/21 09:15:27;;;;;;;19.47;7.23;;;33.50;1.00;;;;;;5020393;28;20471;-66
2023/06/21 09:17:55;;;;;;;16.87;5.20;;;32.00;1.00;;;;;;5023380;28;20842;-68
2023/06/21 09:20:27;;;;;;;22.13;6.50;;;30.50;1.00;;;;;;5018072;28;20498;-67
2023/06/21 09:22:53;;;;;;;21.43;6.53;;;29.40;2.80;;;;;;5015830;28;20574;-67
2023/06/21 09:25:20;;;;;;;14.50;5.23;;;28.50;4.50;;;;;;5018848;28;20486;-67
2023/06/21 09:27:48;;;;;;;21.60;6.20;;;27.70;6.40;;;;;;5024201;28;20990;-67
2023/06/21 09:30:16;;;;;;;16.93;5.80;;;26.90;7.40;;;;;;5015799;28;20470;-67
2023/06/21 09:32:43;;;;;;;18.50;6.30;;;26.10;8.70;;;;;;5022938;28;20513;-67
2023/06/21 09:35:10;;;;;;;13.80;5.10;;;25.60;9.30;;;;;;5023833;28;20471;-67
2023/06/21 09:37:39;;;;;;;17.37;4.80;;;25.20;9.60;;;;;;5024792;28;20482;-67
2023/06/21 09:40:07;;;;;;;21.00;5.70;;;24.80;10.60;;;;;;5031131;28;20467;-71
2023/06/21 09:42:37;;;;;;;18.27;5.37;;;24.30;12.20;;;;;;5030362;28;21035;-71
2023/06/21 09:45:08;;;;;;;13.87;4.87;;;23.80;14.60;;;;;;5030541;28;20967;-72
2023/06/21 09:47:36;;;;;;;15.53;6.10;;;23.30;15.80;;;;;;5030562;28;20463;-71
2023/06/21 09:50:05;;;;;;;16.60;6.20;;;22.80;17.80;;;;;;5032819;28;20473;-71
2023/06/21 09:52:32;;;;;;;18.10;6.30;;;22.30;19.30;;;;;;5030700;28;20514;-71
2023/06/21 09:55:00;;;;;;;18.03;5.30;;;21.90;21.50;;;;;;5034822;28;20468;-71
2023/06/21 09:57:28;;;;;;;18.20;5.53;;;21.50;23.40;;;;;;5031325;28;20485;-71
2023/06/21 09:59:55;;;;;;;15.50;5.10;;;21.10;25.00;;;;;;5029175;28;20468;-71
2023/06/21 10:02:22;;;;;;;14.53;5.30;;;20.90;27.50;;;;;;5027326;28;20565;-69
2023/06/21 10:04:54;;;;;;;16.87;6.27;;;20.60;28.40;;;;;;5025436;28;20474;-70
2023/06/21 10:07:21;;;;;;;12.93;5.63;;;20.50;31.70;;;;;;5038323;28;20454;-72
2023/06/21 10:09:51;;;;;;;22.77;6.60;;;20.50;31.50;;;;;;5030177;28;20823;-69
2023/06/21 10:12:18;;;;;;;14.10;5.53;;;20.50;31.20;;;;;;5030850;28;20489;-70
2023/06/21 10:14:45;;;;;;;21.90;6.10;;;20.50;32.00;;;;;;5029998;28;20553;-68
2023/06/21 10:17:12;;;;;;;18.40;6.60;;;20.50;31.80;;;;;;5028792;28;20514;-68
2023/06/21 10:19:43;;;;;;;17.30;6.03;;;20.50;31.90;;;;;;5029287;28;20469;-69
2023/06/21 10:22:12;;;;;;;16.77;6.20;;;20.50;32.30;;;;;;5032066;28;20510;-71
2023/06/21 10:24:43;;;;;;;19.00;6.90;;;20.50;32.60;;;;;;5038124;28;20844;-67
2023/06/21 10:27:11;;;;;;;16.03;6.70;;;20.60;32.20;;;;;;5033007;28;20955;-68
2023/06/21 10:29:41;;;;;;;13.47;5.73;;;20.70;33.20;;;;;;5030977;28;20467;-68
2023/06/21 10:32:08;;;;;;;22.80;6.17;;;20.70;33.50;;;;;;5048668;28;20487;-69
2023/06/21 10:34:48;;;;;;;16.57;5.00;;;20.70;32.90;;;;;;5033587;28;20471;-68
2023/06/21 10:37:23;;;;;;;17.40;4.97;;;20.80;32.70;;;;;;5030360;28;20986;-65
2023/06/21 10:39:53;;;;;;;15.27;4.53;;;21.00;31.70;;;;;;5029705;28;20462;-71
2023/06/21 10:42:22;;;;;;;18.17;4.57;;;21.10;31.40;;;;;;5021530;28;20533;-69
2023/06/21 10:44:50;;;;;;;18.43;5.40;;;21.30;30.70;;;;;;5030851;28;20466;-66
2023/06/21 10:47:19;;;;;;;15.40;5.90;;;21.40;29.90;;;;;;5030284;28;20466;-66
2023/06/21 10:49:47;;;;;;;23.63;6.30;;;21.70;30.10;;;;;;5028944;28;20466;-66
2023/06/21 10:52:17;;;;;;;14.83;6.13;;;21.80;29.70;;;;;;5024855;28;20486;-65
2023/06/21 10:54:45;;;;;;;13.90;4.67;;;22.10;28.30;;;;;;5025501;28;20470;-66
2023/06/21 10:57:13;;;;;;;14.57;4.43;;;22.30;27.90;;;;;;5021628;28;20490;-67
2023/06/21 10:59:40;;;;;;;16.20;5.17;;;22.60;25.30;;;;;;5026248;28;20460;-67
2023/06/21 11:02:08;;;;;;;14.07;4.10;;;22.90;22.90;;;;;;5024600;28;20804;-66
2023/06/21 11:05:09;;;;;;;14.63;4.97;;;23.20;23.10;;;;;;5029961;28;20470;-70
2023/06/21 11:07:37;;;;;;;12.13;5.10;;;23.50;20.40;;;;;;5024174;28;20458;-70
2023/06/21 11:10:04;;;;;;;14.70;5.60;;;23.80;20.40;;;;;;5025397;28;20466;-71
2023/06/21 11:12:31;;;;;;;15.50;5.67;;;24.10;18.80;;;;;;5055908;22;20503;-69
2023/06/21 11:14:58;;;;;;;16.13;5.53;;;24.30;18.30;;;;;;5002889;28;20962;-69
2023/06/21 11:17:25;;;;;;;15.87;6.20;;;24.40;17.80;;;;;;5008268;28;20483;-70
2023/06/21 11:19:53;;;;;;;18.53;5.97;;;24.60;17.50;;;;;;5003233;28;20467;-68
2023/06/21 11:22:24;;;;;;;20.27;5.07;;;24.80;17.00;;;;;;5002246;28;20502;-69
2023/06/21 11:24:57;;;;;;;17.00;5.80;;;24.90;18.00;;;;;;5003604;28;20514;-68
2023/06/21 11:27:25;;;;;;;14.33;5.13;;;25.10;16.40;;;;;;5006582;28;20467;-71
2023/06/21 11:29:59;;;;;;;12.60;5.00;;;25.30;16.00;;;;;;5007401;28;20468;-71
2023/06/21 11:32:29;;;;;;;16.23;6.23;;;25.40;15.90;;;;;;5003257;28;20483;-70
2023/06/21 11:34:57;;;;;;;16.20;6.03;;;25.50;15.50;;;;;;5005133;28;20946;-70
2023/06/21 11:37:40;;;;;;;14.63;6.63;;;25.70;15.50;;;;;;5006561;28;20595;-71
2023/06/21 11:40:09;;;;;;;16.33;6.33;;;25.90;14.70;;;;;;5006059;28;20483;-71
2023/06/21 11:42:42;;;;;;;17.00;5.67;;;26.00;14.70;;;;;;5007098;28;20538;-71
2023/06/21 11:45:25;;;;;;;18.70;6.80;;;26.20;15.10;;;;;;5007176;28;20486;-72
2023/06/21 11:48:05;;;;;;;19.33;6.13;;;26.30;14.10;;;;;;5003515;28;20465;-72
2023/06/21 11:50:34;;;;;;;18.53;5.50;;;26.20;14.50;;;;;;5002509;28;20460;-71
2023/06/21 11:53:20;;;;;;;17.27;5.53;;;26.30;14.50;;;;;;5005027;28;20495;-70
2023/06/21 11:55:50;;;;;;;17.47;6.70;;;26.50;13.70;;;;;;5005238;28;20514;-70
2023/06/21 11:58:17;;;;;;;17.37;5.80;;;26.60;14.20;;;;;;5003217;28;20484;-70
2023/06/21 12:00:45;;;;;;;13.40;5.30;;;26.80;13.70;;;;;;5004795;28;21058;-70
2023/06/21 12:03:12;;;;;;;20.27;6.10;;;26.90;13.40;;;;;;5010058;28;20619;-71
2023/06/21 12:05:51;;;;;;;15.80;4.70;;;27.00;12.80;;;;;;5004734;28;20471;-71
2023/06/21 12:08:19;;;;;;;13.97;5.30;;;27.00;12.00;;;;;;5008102;28;20459;-70
2023/06/21 12:10:46;;;;;;;13.67;4.63;;;27.00;13.90;;;;;;5005673;28;20959;-70
2023/06/21 12:13:15;;;;;;;14.60;4.93;;;27.10;14.70;;;;;;5002362;28;20495;-71
2023/06/21 12:15:52;;;;;;;17.50;5.30;;;27.10;13.60;;;;;;5004725;28;20468;-71
2023/06/21 12:18:20;;;;;;;17.73;6.17;;;27.10;13.20;;;;;;5007801;28;20506;-72
2023/06/21 12:20:48;;;;;;;14.47;4.90;;;27.20;11.90;;;;;;5007942;28;20486;-72
2023/06/21 12:23:15;;;;;;;17.97;6.13;;;27.20;10.70;;;;;;5000589;28;20479;-72
2023/06/21 12:25:43;;;;;;;15.73;5.27;;;27.20;11.40;;;;;;5005742;28;21016;-71
2023/06/21 12:28:11;;;;;;;19.77;6.17;;;27.20;12.10;;;;;;5004445;28;20482;-72
2023/06/21 12:30:48;;;;;;;17.60;6.53;;;27.20;13.60;;;;;;5008993;28;20554;-73
2023/06/21 12:33:15;;;;;;;17.03;5.20;;;27.20;13.60;;;;;;5002820;28;20502;-72
2023/06/21 12:35:43;;;;;;;19.20;6.13;;;27.30;13.60;;;;;;5002653;28;20467;-72
2023/06/21 12:38:12;;;;;;;13.93;5.83;;;27.30;13.70;;;;;;5005880;28;20484;-71
2023/06/21 12:40:52;;;;;;;16.37;6.67;;;27.30;13.10;;;;;;4999432;28;20843;-71
2023/06/21 12:43:35;;;;;;;17.73;6.53;;;27.30;12.80;;;;;;5004621;28;20487;-70